Skip to main content

NOAA/GLERL Met Station at Michigan City, IN

Previous 3 Hours (2 minute increments)
See also Previous 5 Days (top of hour)
Jump down to Data
Switch to [English][Metric]
Zoom: Click and drag, Pan: shift-click and drag, Unzoom: double-click, Unzoom All






See also 1-day windrose plot


NOAA/GLERL Met Station at Michigan City, IN

Previous 3 Hours (2 minute increments)
See also Previous 5 Days (top of hour only)
Jump up to Graphs
Switch to [English][Metric]
                  Wind  Wind  Wind   Air   Dew   Rel     Sta   PAR
                   Spd   Gst   Dir  Temp    Pt   Hum    Pres uE/m2/
YYYY-MM-DD   CDT   kts   kts   deg     F     F     %   in Hg   sec
2021-04-19 13:06   7.4   8.2   318  41.5  40.3  95.4   29.22   164
2021-04-19 13:04   7.6   8.9   318  41.5  40.3  95.3   29.22   164
2021-04-19 13:02   7.8   8.7   320  41.5  40.3  95.3   29.21   164
2021-04-19 13:00   8.2   9.7   333  41.4  40.1  95.1   29.20   164
2021-04-19 12:58   8.7   9.9   333  41.4  40.0  94.9   29.20   164
2021-04-19 12:56   8.4   8.9   336  41.5  40.2  94.8   29.20   164
2021-04-19 12:54   8.0   9.5   341  41.5  40.1  94.6   29.20   164
2021-04-19 12:52   9.3  10.9   340  41.5  40.1  94.4   29.20   164
2021-04-19 12:50   9.3  10.9   342  41.5  40.0  94.3   29.20   164
2021-04-19 12:48   9.3  10.3   344  41.4  39.8  94.1   29.20   164
2021-04-19 12:46  10.9  12.6   345  41.5  40.0  94.0   29.20   164
2021-04-19 12:44  10.3  11.9   345  41.5  39.9  93.9   29.20   164
2021-04-19 12:42  10.9  12.2   345  41.5  39.9  93.7   29.20   164
2021-04-19 12:40  11.7  13.0   347  41.5  39.8  93.6   29.22   164
2021-04-19 12:38  10.9  12.1   345  41.5  39.8  93.5   29.22   164
2021-04-19 12:36  12.8  14.2   345  41.5  39.7  93.2   29.22   164
2021-04-19 12:34  13.2  14.8   339  41.4  39.5  92.9   29.22   164
2021-04-19 12:32  14.0  15.9   342  41.4  39.4  92.8   29.21   164
2021-04-19 12:30  14.2  15.6   342  41.4  39.4  92.7   29.20   164
2021-04-19 12:28  15.0  16.5   343  41.5  39.6  92.6   29.20   164
2021-04-19 12:26  14.8  15.9   337  41.5  39.6  92.6   29.20   164
2021-04-19 12:24  14.4  16.5   338  41.4  39.4  92.7   29.20   164
2021-04-19 12:22  16.5  18.3   341  41.4  39.4  92.8   29.19   164
2021-04-19 12:20  15.4  16.9   337  41.5  39.7  92.9   29.19   232
2021-04-19 12:18  16.1  17.9   337  41.4  39.5  93.0   29.19   226
2021-04-19 12:16  16.7  19.8   337  41.5  39.7  93.0   29.20   205
2021-04-19 12:14  16.1  17.5   334  41.5  39.7  93.0   29.20   164
2021-04-19 12:12  15.6  17.5   337  41.9  40.0  93.0   29.20   164
2021-04-19 12:10  14.4  17.1   335  41.9  40.0  92.9   29.21   157
2021-04-19 12:08  15.7  17.5   337  41.9  40.0  92.8   29.21   150
2021-04-19 12:06  16.7  18.7   337  41.9  39.9  92.6   29.20   103
2021-04-19 12:04  15.2  16.7   338  41.9  39.9  92.5   29.20   164
2021-04-19 12:02  15.4  16.9   337  42.1  40.0  92.3   29.20   164
2021-04-19 12:00  14.6  16.9   337  42.3  40.1  91.9   29.19   164
2021-04-19 11:58  14.0  16.1   338  42.3  40.0  91.7   29.19   164
2021-04-19 11:56  15.2  16.3   338  42.4  40.1  91.3   29.19   164
2021-04-19 11:54  12.8  15.6   340  42.6  40.2  91.2   29.19   164
2021-04-19 11:52  14.0  15.6   339  42.6  40.1  90.8   29.19   164
2021-04-19 11:50  14.2  16.5   343  42.6  40.1  90.7   29.18   212
2021-04-19 11:48  14.4  15.6   346  42.8  40.3  90.6   29.18   328
2021-04-19 11:46  14.4  15.6   345  42.8  40.2  90.3   29.18   328
2021-04-19 11:44  15.2  17.3   353  42.8  40.1  90.0   29.18   328
2021-04-19 11:42  14.8  18.9   347  43.0  40.2  89.8   29.18   328
2021-04-19 11:40  15.2  18.3   346  43.0  40.1  89.4   29.19   328
2021-04-19 11:38  15.9  17.5   346  43.0  40.0  88.9   29.19   328
2021-04-19 11:36  15.6  17.7   345  43.2  40.0  88.5   29.19   328
2021-04-19 11:34  17.7  19.6   339  43.2  39.8  87.9   29.19   328
2021-04-19 11:32  18.7  20.4   338  43.3  39.9  87.6   29.18   328
2021-04-19 11:30  17.5  19.8   339  43.7  40.1  87.0   29.18   328
2021-04-19 11:28  19.1  21.2   334  43.9  40.0  85.9   29.17   307
2021-04-19 11:26  20.2  22.6   335  44.2  39.8  84.3   29.17   280
2021-04-19 11:24  20.6  23.1   337  45.0  39.7  81.7   29.17   328
2021-04-19 11:22  21.0  22.0   328  45.9  39.7  78.7   29.17   328
2021-04-19 11:20  17.9  18.9   319  46.8  39.8  76.6   29.17   328
2021-04-19 11:18  18.5  19.4   315  47.5  39.7  74.0   29.17   328
2021-04-19 11:16  17.7  19.2   313  47.7  39.5  73.0   29.16   342
2021-04-19 11:14  15.4  16.9   298  48.2  40.4  74.0   29.16   328
2021-04-19 11:12  13.8  16.1   278  48.4  40.1  72.9   29.16   226
2021-04-19 11:10  12.6  14.0   265  48.4  39.9  72.3   29.18   321
2021-04-19 11:08  12.8  13.8   259  48.4  39.9  72.1   29.17   294
2021-04-19 11:06  13.0  13.8   257  48.6  39.5  70.7   29.17   328
2021-04-19 11:04  12.8  14.2   256  48.6  39.5  70.6   29.17   492
2021-04-19 11:02  12.8  13.8   255  48.6  39.4  70.4   29.16   492
2021-04-19 11:00  12.8  13.6   254  48.6  39.4  70.2   29.16   492
2021-04-19 10:58  13.0  13.6   253  48.6  39.4  70.4   29.16   506
2021-04-19 10:56  12.8  13.4   254  48.6  39.5  70.7   29.16   635
2021-04-19 10:54  12.8  13.6   254  48.6  39.5  70.5   29.16   492
2021-04-19 10:52  13.2  15.0   253  48.6  39.2  69.8   29.16   492
2021-04-19 10:50  13.2  14.4   254  48.6  39.4  70.4   29.16   430
2021-04-19 10:48  13.0  13.6   255  48.6  39.2  69.9   29.16   328
2021-04-19 10:46  13.2  14.0   254  48.6  39.2  69.8   29.16   328
2021-04-19 10:44  12.6  13.0   255  48.6  39.6  70.9   29.16   328
2021-04-19 10:42  12.1  12.8   257  48.6  39.7  71.1   29.16   328
2021-04-19 10:40  12.4  14.0   258  48.2  40.0  72.9   29.17   328
2021-04-19 10:38  11.3  12.8   263  48.2  40.4  74.0   29.17   328
2021-04-19 10:36  11.9  12.8   262  48.4  40.1  72.8   29.17   328
2021-04-19 10:34  12.2  13.0   259  48.6  39.8  71.4   29.17   191
2021-04-19 10:32  12.4  13.2   258  48.7  39.7  70.8   29.16   164
2021-04-19 10:30  12.4  13.4   258  49.1  39.1  68.0   29.15   164
2021-04-19 10:28  13.8  14.6   255  49.3  38.6  66.3   29.15   185
2021-04-19 10:26  14.4  15.4   255  49.5  38.6  65.8   29.15   307
2021-04-19 10:24  14.2  15.2   256  49.5  38.3  65.2   29.15   328
2021-04-19 10:22  14.6  15.4   255  49.6  37.9  63.7   29.14   355
2021-04-19 10:20  14.8  15.9   256  49.5  38.0  64.4   29.14   492
2021-04-19 10:18  14.2  15.6   255  49.3  38.2  65.2   29.14   451
2021-04-19 10:16  14.6  15.4   255  49.3  38.2  65.4   29.14   328
2021-04-19 10:14  15.0  16.3   257  49.3  38.4  65.8   29.14   328
2021-04-19 10:12  14.8  15.7   259  49.1  38.6  66.7   29.14   328
2021-04-19 10:10  13.0  14.0   257  48.9  39.1  68.5   29.15   328
2021-04-19 10:08  12.1  12.8   255  48.9  39.3  69.0   29.15   328
2021-04-19 10:06  14.0  15.7   258  49.1  38.6  66.8   29.15   328